sensor_id;sensor_type;location;lat;lon;timestamp;temperature;humidity
20750;DHT22;10535;50.664;4.564;2022-11-25T00:00:35;11.70;99.90
20750;DHT22;10535;50.664;4.564;2022-11-25T00:03:07;11.80;99.90
20750;DHT22;10535;50.664;4.564;2022-11-25T00:05:43;11.80;99.90
20750;DHT22;10535;50.664;4.564;2022-11-25T00:08:12;11.80;99.90
20750;DHT22;10535;50.664;4.564;2022-11-25T00:10:38;11.70;99.90
20750;DHT22;10535;50.664;4.564;2022-11-25T00:13:06;11.80;99.90
20750;DHT22;10535;50.664;4.564;2022-11-25T00:15:33;11.80;99.90
20750;DHT22;10535;50.664;4.564;2022-11-25T00:17:59;11.80;99.90
20750;DHT22;10535;50.664;4.564;2022-11-25T00:20:26;12.00;99.90
20750;DHT22;10535;50.664;4.564;2022-11-25T00:22:52;11.80;99.90
20750;DHT22;10535;50.664;4.564;2022-11-25T00:25:17;11.70;99.90
20750;DHT22;10535;50.664;4.564;2022-11-25T00:27:43;11.80;99.90
20750;DHT22;10535;50.664;4.564;2022-11-25T00:30:12;11.70;99.90
20750;DHT22;10535;50.664;4.564;2022-11-25T00:32:40;11.60;99.90
20750;DHT22;10535;50.664;4.564;2022-11-25T00:35:09;11.70;99.90
20750;DHT22;10535;50.664;4.564;2022-11-25T00:37:38;11.60;99.90
20750;DHT22;10535;50.664;4.564;2022-11-25T00:40:07;11.60;99.90
20750;DHT22;10535;50.664;4.564;2022-11-25T00:42:34;11.60;99.90
20750;DHT22;10535;50.664;4.564;2022-11-25T00:45:19;11.60;99.90
20750;DHT22;10535;50.664;4.564;2022-11-25T00:47:44;11.50;99.90
20750;DHT22;10535;50.664;4.564;2022-11-25T00:50:14;11.50;99.90
20750;DHT22;10535;50.664;4.564;2022-11-25T00:52:40;11.30;99.90
20750;DHT22;10535;50.664;4.564;2022-11-25T00:55:07;11.60;99.90
20750;DHT22;10535;50.664;4.564;2022-11-25T00:57:33;11.60;99.90
20750;DHT22;10535;50.664;4.564;2022-11-25T00:59:59;11.70;99.90
20750;DHT22;10535;50.664;4.564;2022-11-25T01:02:27;11.70;99.90
20750;DHT22;10535;50.664;4.564;2022-11-25T01:04:53;11.70;99.90
20750;DHT22;10535;50.664;4.564;2022-11-25T01:07:32;11.60;99.90
20750;DHT22;10535;50.664;4.564;2022-11-25T01:09:57;11.60;99.90
20750;DHT22;10535;50.664;4.564;2022-11-25T01:12:30;11.50;99.90
20750;DHT22;10535;50.664;4.564;2022-11-25T01:25:20;11.20;99.90
20750;DHT22;10535;50.664;4.564;2022-11-25T01:28:12;11.00;99.90
20750;DHT22;10535;50.664;4.564;2022-11-25T01:30:46;10.70;99.90
20750;DHT22;10535;50.664;4.564;2022-11-25T01:33:24;10.70;99.90
20750;DHT22;10535;50.664;4.564;2022-11-25T01:35:50;10.40;99.90
20750;DHT22;10535;50.664;4.564;2022-11-25T01:38:16;10.40;99.90
20750;DHT22;10535;50.664;4.564;2022-11-25T01:40:42;10.50;99.90
20750;DHT22;10535;50.664;4.564;2022-11-25T01:43:13;10.20;99.90
20750;DHT22;10535;50.664;4.564;2022-11-25T01:45:39;10.30;99.90
20750;DHT22;10535;50.664;4.564;2022-11-25T01:48:16;10.20;99.90
20750;DHT22;10535;50.664;4.564;2022-11-25T01:50:44;10.10;99.90
20750;DHT22;10535;50.664;4.564;2022-11-25T01:53:12;10.10;99.90
20750;DHT22;10535;50.664;4.564;2022-11-25T01:55:42;10.10;99.90
20750;DHT22;10535;50.664;4.564;2022-11-25T01:58:16;10.00;99.90
20750;DHT22;10535;50.664;4.564;2022-11-25T02:00:43;10.10;99.90
20750;DHT22;10535;50.664;4.564;2022-11-25T02:03:20;10.00;99.90
20750;DHT22;10535;50.664;4.564;2022-11-25T02:06:07;10.20;99.90
20750;DHT22;10535;50.664;4.564;2022-11-25T02:08:33;10.20;99.90
20750;DHT22;10535;50.664;4.564;2022-11-25T02:11:00;10.30;99.90
20750;DHT22;10535;50.664;4.564;2022-11-25T02:13:32;10.20;99.90
20750;DHT22;10535;50.664;4.564;2022-11-25T02:16:00;9.80;99.90
20750;DHT22;10535;50.664;4.564;2022-11-25T02:18:26;9.80;99.90
20750;DHT22;10535;50.664;4.564;2022-11-25T02:20:53;10.00;99.90
20750;DHT22;10535;50.664;4.564;2022-11-25T02:26:25;9.90;99.90
20750;DHT22;10535;50.664;4.564;2022-11-25T02:28:52;9.90;99.90
20750;DHT22;10535;50.664;4.564;2022-11-25T02:31:22;9.90;99.90
20750;DHT22;10535;50.664;4.564;2022-11-25T02:33:51;10.10;99.90
20750;DHT22;10535;50.664;4.564;2022-11-25T02:36:20;9.90;99.90
20750;DHT22;10535;50.664;4.564;2022-11-25T02:38:51;9.90;99.90
20750;DHT22;10535;50.664;4.564;2022-11-25T02:41:29;10.10;99.90
20750;DHT22;10535;50.664;4.564;2022-11-25T02:44:20;10.00;99.90
20750;DHT22;10535;50.664;4.564;2022-11-25T02:46:47;9.90;99.90
20750;DHT22;10535;50.664;4.564;2022-11-25T02:49:14;9.90;99.90
20750;DHT22;10535;50.664;4.564;2022-11-25T02:51:42;9.90;99.90
20750;DHT22;10535;50.664;4.564;2022-11-25T02:54:14;9.80;99.90
20750;DHT22;10535;50.664;4.564;2022-11-25T02:57:01;10.00;99.90
20750;DHT22;10535;50.664;4.564;2022-11-25T02:59:32;9.70;99.90
20750;DHT22;10535;50.664;4.564;2022-11-25T03:02:01;9.60;99.90
20750;DHT22;10535;50.664;4.564;2022-11-25T03:04:31;9.80;99.90
20750;DHT22;10535;50.664;4.564;2022-11-25T03:06:56;10.00;99.90
20750;DHT22;10535;50.664;4.564;2022-11-25T03:09:23;9.90;99.90
20750;DHT22;10535;50.664;4.564;2022-11-25T03:11:50;9.60;99.90
20750;DHT22;10535;50.664;4.564;2022-11-25T03:14:35;9.60;99.90
20750;DHT22;10535;50.664;4.564;2022-11-25T03:17:04;9.50;99.90
20750;DHT22;10535;50.664;4.564;2022-11-25T03:19:30;9.40;99.90
20750;DHT22;10535;50.664;4.564;2022-11-25T03:21:58;9.40;99.90
20750;DHT22;10535;50.664;4.564;2022-11-25T03:24:30;9.40;99.90
20750;DHT22;10535;50.664;4.564;2022-11-25T03:27:00;9.40;99.90
20750;DHT22;10535;50.664;4.564;2022-11-25T03:29:29;9.50;99.90
20750;DHT22;10535;50.664;4.564;2022-11-25T03:31:56;9.30;99.90
20750;DHT22;10535;50.664;4.564;2022-11-25T03:34:28;9.30;99.90
20750;DHT22;10535;50.664;4.564;2022-11-25T03:36:57;9.20;99.90
20750;DHT22;10535;50.664;4.564;2022-11-25T03:39:24;9.20;99.90
20750;DHT22;10535;50.664;4.564;2022-11-25T03:41:51;9.20;99.90
20750;DHT22;10535;50.664;4.564;2022-11-25T03:44:18;9.40;99.90
20750;DHT22;10535;50.664;4.564;2022-11-25T03:46:44;9.20;99.90
20750;DHT22;10535;50.664;4.564;2022-11-25T03:49:12;9.10;99.90
20750;DHT22;10535;50.664;4.564;2022-11-25T03:51:38;9.20;99.90
20750;DHT22;10535;50.664;4.564;2022-11-25T03:54:06;9.30;99.90
20750;DHT22;10535;50.664;4.564;2022-11-25T03:56:33;9.20;99.90
20750;DHT22;10535;50.664;4.564;2022-11-25T03:58:59;9.20;99.90
20750;DHT22;10535;50.664;4.564;2022-11-25T04:01:25;8.90;99.90
20750;DHT22;10535;50.664;4.564;2022-11-25T04:03:51;8.90;99.90
20750;DHT22;10535;50.664;4.564;2022-11-25T04:06:16;8.90;99.90
20750;DHT22;10535;50.664;4.564;2022-11-25T04:08:46;8.90;99.90
20750;DHT22;10535;50.664;4.564;2022-11-25T04:11:11;9.00;99.90
20750;DHT22;10535;50.664;4.564;2022-11-25T04:13:37;9.10;99.90
20750;DHT22;10535;50.664;4.564;2022-11-25T04:16:03;8.90;99.90
20750;DHT22;10535;50.664;4.564;2022-11-25T04:18:29;8.80;99.90
20750;DHT22;10535;50.664;4.564;2022-11-25T04:20:54;8.90;99.90
20750;DHT22;10535;50.664;4.564;2022-11-25T04:23:20;9.10;99.90
20750;DHT22;10535;50.664;4.564;2022-11-25T04:25:49;9.20;99.90
20750;DHT22;10535;50.664;4.564;2022-11-25T04:28:15;9.10;99.90
20750;DHT22;10535;50.664;4.564;2022-11-25T04:30:41;9.10;99.90
20750;DHT22;10535;50.664;4.564;2022-11-25T04:33:10;9.10;99.90
20750;DHT22;10535;50.664;4.564;2022-11-25T04:36:00;9.00;99.90
20750;DHT22;10535;50.664;4.564;2022-11-25T04:38:26;8.90;99.90
20750;DHT22;10535;50.664;4.564;2022-11-25T04:40:51;8.90;99.90
20750;DHT22;10535;50.664;4.564;2022-11-25T04:43:24;8.90;99.90
20750;DHT22;10535;50.664;4.564;2022-11-25T04:45:53;9.00;99.90
20750;DHT22;10535;50.664;4.564;2022-11-25T04:48:19;8.80;99.90
20750;DHT22;10535;50.664;4.564;2022-11-25T04:50:47;8.60;99.90
20750;DHT22;10535;50.664;4.564;2022-11-25T04:53:31;8.60;99.90
20750;DHT22;10535;50.664;4.564;2022-11-25T04:56:37;8.70;99.90
20750;DHT22;10535;50.664;4.564;2022-11-25T04:59:11;8.60;99.90
20750;DHT22;10535;50.664;4.564;2022-11-25T05:01:55;8.80;99.90
20750;DHT22;10535;50.664;4.564;2022-11-25T05:04:26;8.60;99.90
20750;DHT22;10535;50.664;4.564;2022-11-25T05:06:53;8.70;99.90
20750;DHT22;10535;50.664;4.564;2022-11-25T05:09:19;8.70;99.90
20750;DHT22;10535;50.664;4.564;2022-11-25T05:12:00;8.80;99.90
20750;DHT22;10535;50.664;4.564;2022-11-25T05:14:27;9.10;99.90
20750;DHT22;10535;50.664;4.564;2022-11-25T05:16:53;9.10;99.90
20750;DHT22;10535;50.664;4.564;2022-11-25T05:19:25;9.10;99.90
20750;DHT22;10535;50.664;4.564;2022-11-25T05:21:51;9.10;99.90
20750;DHT22;10535;50.664;4.564;2022-11-25T05:24:20;9.20;99.90
20750;DHT22;10535;50.664;4.564;2022-11-25T05:26:46;9.20;99.90
20750;DHT22;10535;50.664;4.564;2022-11-25T05:29:28;9.20;99.90
20750;DHT22;10535;50.664;4.564;2022-11-25T05:32:04;9.20;99.90
20750;DHT22;10535;50.664;4.564;2022-11-25T05:34:39;9.20;99.90
20750;DHT22;10535;50.664;4.564;2022-11-25T05:37:11;9.00;99.90
20750;DHT22;10535;50.664;4.564;2022-11-25T05:39:40;9.00;99.90
20750;DHT22;10535;50.664;4.564;2022-11-25T05:42:35;9.20;99.90
20750;DHT22;10535;50.664;4.564;2022-11-25T05:45:42;8.80;99.90
20750;DHT22;10535;50.664;4.564;2022-11-25T05:48:08;8.90;99.90
20750;DHT22;10535;50.664;4.564;2022-11-25T05:50:36;8.80;99.90
20750;DHT22;10535;50.664;4.564;2022-11-25T05:53:04;8.80;99.90
20750;DHT22;10535;50.664;4.564;2022-11-25T05:55:32;8.80;99.90
20750;DHT22;10535;50.664;4.564;2022-11-25T05:58:04;8.80;99.90
20750;DHT22;10535;50.664;4.564;2022-11-25T06:00:33;8.80;99.90
20750;DHT22;10535;50.664;4.564;2022-11-25T06:02:59;8.90;99.90
20750;DHT22;10535;50.664;4.564;2022-11-25T06:05:27;8.60;99.90
20750;DHT22;10535;50.664;4.564;2022-11-25T06:08:11;8.50;99.90
20750;DHT22;10535;50.664;4.564;2022-11-25T06:10:40;8.50;99.90
20750;DHT22;10535;50.664;4.564;2022-11-25T06:13:07;8.50;99.90
20750;DHT22;10535;50.664;4.564;2022-11-25T06:15:43;8.60;99.90
20750;DHT22;10535;50.664;4.564;2022-11-25T06:18:10;8.40;99.90
20750;DHT22;10535;50.664;4.564;2022-11-25T06:20:37;8.50;99.90
20750;DHT22;10535;50.664;4.564;2022-11-25T06:23:04;8.60;99.90
20750;DHT22;10535;50.664;4.564;2022-11-25T06:25:30;8.60;99.90
20750;DHT22;10535;50.664;4.564;2022-11-25T06:27:58;8.80;99.90
20750;DHT22;10535;50.664;4.564;2022-11-25T06:30:25;8.70;99.90
20750;DHT22;10535;50.664;4.564;2022-11-25T06:32:53;8.60;99.90
20750;DHT22;10535;50.664;4.564;2022-11-25T06:35:19;8.50;99.90
20750;DHT22;10535;50.664;4.564;2022-11-25T06:37:46;8.40;99.90
20750;DHT22;10535;50.664;4.564;2022-11-25T06:40:12;8.40;99.90
20750;DHT22;10535;50.664;4.564;2022-11-25T06:42:38;8.50;99.90
20750;DHT22;10535;50.664;4.564;2022-11-25T06:45:05;8.50;99.90
20750;DHT22;10535;50.664;4.564;2022-11-25T06:47:31;8.30;99.90
20750;DHT22;10535;50.664;4.564;2022-11-25T06:49:57;8.60;99.90
20750;DHT22;10535;50.664;4.564;2022-11-25T06:52:23;8.50;99.90
20750;DHT22;10535;50.664;4.564;2022-11-25T06:54:51;8.30;99.90
20750;DHT22;10535;50.664;4.564;2022-11-25T06:57:18;8.40;99.90
20750;DHT22;10535;50.664;4.564;2022-11-25T06:59:44;8.30;99.90
20750;DHT22;10535;50.664;4.564;2022-11-25T07:02:13;8.30;99.90
20750;DHT22;10535;50.664;4.564;2022-11-25T07:04:39;8.20;99.90
20750;DHT22;10535;50.664;4.564;2022-11-25T07:07:06;8.20;99.90
20750;DHT22;10535;50.664;4.564;2022-11-25T07:09:32;8.20;99.90
20750;DHT22;10535;50.664;4.564;2022-11-25T07:11:58;8.20;99.90
20750;DHT22;10535;50.664;4.564;2022-11-25T07:14:23;8.20;99.90
20750;DHT22;10535;50.664;4.564;2022-11-25T07:16:49;8.20;99.90
20750;DHT22;10535;50.664;4.564;2022-11-25T07:19:17;8.20;99.90
20750;DHT22;10535;50.664;4.564;2022-11-25T07:21:44;8.20;99.90
20750;DHT22;10535;50.664;4.564;2022-11-25T07:24:12;8.40;99.90
20750;DHT22;10535;50.664;4.564;2022-11-25T07:26:41;8.30;99.90
20750;DHT22;10535;50.664;4.564;2022-11-25T07:29:10;8.30;99.90
20750;DHT22;10535;50.664;4.564;2022-11-25T07:31:38;8.30;99.90
20750;DHT22;10535;50.664;4.564;2022-11-25T07:34:10;8.30;99.90
20750;DHT22;10535;50.664;4.564;2022-11-25T07:36:36;8.30;99.90
20750;DHT22;10535;50.664;4.564;2022-11-25T07:39:06;8.20;99.90
20750;DHT22;10535;50.664;4.564;2022-11-25T07:41:32;8.20;99.90
20750;DHT22;10535;50.664;4.564;2022-11-25T07:44:24;8.20;99.90
20750;DHT22;10535;50.664;4.564;2022-11-25T07:47:03;8.30;99.90
20750;DHT22;10535;50.664;4.564;2022-11-25T07:49:30;8.40;99.90
20750;DHT22;10535;50.664;4.564;2022-11-25T07:51:57;8.30;99.90
20750;DHT22;10535;50.664;4.564;2022-11-25T07:54:31;8.40;99.90
20750;DHT22;10535;50.664;4.564;2022-11-25T07:56:58;8.50;99.90
20750;DHT22;10535;50.664;4.564;2022-11-25T07:59:24;8.40;99.90
20750;DHT22;10535;50.664;4.564;2022-11-25T08:01:51;8.40;99.90
20750;DHT22;10535;50.664;4.564;2022-11-25T08:04:18;8.40;99.90
20750;DHT22;10535;50.664;4.564;2022-11-25T08:06:44;8.50;99.90
20750;DHT22;10535;50.664;4.564;2022-11-25T08:09:13;8.50;99.90
20750;DHT22;10535;50.664;4.564;2022-11-25T08:11:40;8.60;99.90
20750;DHT22;10535;50.664;4.564;2022-11-25T08:14:06;8.50;99.90
20750;DHT22;10535;50.664;4.564;2022-11-25T08:16:32;8.60;99.90
20750;DHT22;10535;50.664;4.564;2022-11-25T08:19:03;8.60;99.90
20750;DHT22;10535;50.664;4.564;2022-11-25T08:21:29;8.70;99.90
20750;DHT22;10535;50.664;4.564;2022-11-25T08:23:55;8.80;99.90
20750;DHT22;10535;50.664;4.564;2022-11-25T08:26:30;8.80;99.90
20750;DHT22;10535;50.664;4.564;2022-11-25T08:28:56;8.90;99.90
20750;DHT22;10535;50.664;4.564;2022-11-25T08:31:29;9.00;99.90
20750;DHT22;10535;50.664;4.564;2022-11-25T08:33:55;8.90;99.90
20750;DHT22;10535;50.664;4.564;2022-11-25T08:36:22;9.00;99.90
20750;DHT22;10535;50.664;4.564;2022-11-25T08:38:50;9.00;99.90
20750;DHT22;10535;50.664;4.564;2022-11-25T08:43:47;9.00;99.90
20750;DHT22;10535;50.664;4.564;2022-11-25T08:46:16;9.10;99.90
20750;DHT22;10535;50.664;4.564;2022-11-25T08:48:42;9.10;99.90
20750;DHT22;10535;50.664;4.564;2022-11-25T08:51:13;9.20;99.90
20750;DHT22;10535;50.664;4.564;2022-11-25T08:53:41;9.20;99.90
20750;DHT22;10535;50.664;4.564;2022-11-25T08:56:08;9.30;99.90
20750;DHT22;10535;50.664;4.564;2022-11-25T08:58:34;9.30;99.90
20750;DHT22;10535;50.664;4.564;2022-11-25T09:01:00;9.30;99.90
20750;DHT22;10535;50.664;4.564;2022-11-25T09:03:27;9.40;99.90
20750;DHT22;10535;50.664;4.564;2022-11-25T09:05:54;9.50;99.90
20750;DHT22;10535;50.664;4.564;2022-11-25T09:08:20;9.70;99.90
20750;DHT22;10535;50.664;4.564;2022-11-25T09:10:45;9.80;99.90
20750;DHT22;10535;50.664;4.564;2022-11-25T09:13:11;9.90;99.90
20750;DHT22;10535;50.664;4.564;2022-11-25T09:15:37;10.00;99.90
20750;DHT22;10535;50.664;4.564;2022-11-25T09:18:06;9.90;99.90
20750;DHT22;10535;50.664;4.564;2022-11-25T09:20:33;9.80;99.90
20750;DHT22;10535;50.664;4.564;2022-11-25T09:23:00;9.80;99.90
20750;DHT22;10535;50.664;4.564;2022-11-25T09:25:26;9.70;99.90
20750;DHT22;10535;50.664;4.564;2022-11-25T09:27:52;9.60;99.90
20750;DHT22;10535;50.664;4.564;2022-11-25T09:30:18;9.50;99.90
20750;DHT22;10535;50.664;4.564;2022-11-25T09:32:47;9.50;99.90
20750;DHT22;10535;50.664;4.564;2022-11-25T09:35:13;9.60;99.90
20750;DHT22;10535;50.664;4.564;2022-11-25T09:37:39;9.80;99.90
20750;DHT22;10535;50.664;4.564;2022-11-25T09:40:07;9.90;99.90
20750;DHT22;10535;50.664;4.564;2022-11-25T09:42:39;9.80;99.90
20750;DHT22;10535;50.664;4.564;2022-11-25T09:45:41;10.00;99.90
20750;DHT22;10535;50.664;4.564;2022-11-25T09:51:40;10.30;99.90
20750;DHT22;10535;50.664;4.564;2022-11-25T09:54:51;10.30;99.90
20750;DHT22;10535;50.664;4.564;2022-11-25T10:05:27;10.30;99.90
20750;DHT22;10535;50.664;4.564;2022-11-25T10:08:00;10.20;99.90
20750;DHT22;10535;50.664;4.564;2022-11-25T10:10:30;10.30;99.90
20750;DHT22;10535;50.664;4.564;2022-11-25T10:13:28;10.30;99.90
20750;DHT22;10535;50.664;4.564;2022-11-25T10:16:57;10.30;99.90
20750;DHT22;10535;50.664;4.564;2022-11-25T10:20:18;10.50;99.90
20750;DHT22;10535;50.664;4.564;2022-11-25T10:24:57;10.50;99.90
20750;DHT22;10535;50.664;4.564;2022-11-25T10:27:41;10.70;99.90
20750;DHT22;10535;50.664;4.564;2022-11-25T10:30:20;10.70;99.90
20750;DHT22;10535;50.664;4.564;2022-11-25T10:32:52;10.70;99.90
20750;DHT22;10535;50.664;4.564;2022-11-25T10:35:34;10.80;99.90
20750;DHT22;10535;50.664;4.564;2022-11-25T10:38:02;10.80;99.90
20750;DHT22;10535;50.664;4.564;2022-11-25T10:40:29;11.00;99.90
20750;DHT22;10535;50.664;4.564;2022-11-25T10:42:55;11.20;99.90
20750;DHT22;10535;50.664;4.564;2022-11-25T10:45:28;11.10;99.90
20750;DHT22;10535;50.664;4.564;2022-11-25T10:49:00;11.10;99.90
20750;DHT22;10535;50.664;4.564;2022-11-25T10:54:12;11.10;99.90
20750;DHT22;10535;50.664;4.564;2022-11-25T10:56:51;11.20;99.90
20750;DHT22;10535;50.664;4.564;2022-11-25T11:02:18;11.00;99.90
20750;DHT22;10535;50.664;4.564;2022-11-25T11:07:40;11.00;99.90
20750;DHT22;10535;50.664;4.564;2022-11-25T11:13:05;11.00;99.90
20750;DHT22;10535;50.664;4.564;2022-11-25T11:15:43;11.10;99.90
20750;DHT22;10535;50.664;4.564;2022-11-25T11:21:03;11.30;99.90
20750;DHT22;10535;50.664;4.564;2022-11-25T11:23:29;11.30;99.90
20750;DHT22;10535;50.664;4.564;2022-11-25T11:26:02;11.40;99.90
20750;DHT22;10535;50.664;4.564;2022-11-25T11:31:17;11.70;99.90
20750;DHT22;10535;50.664;4.564;2022-11-25T11:47:47;11.50;99.90
20750;DHT22;10535;50.664;4.564;2022-11-25T11:53:41;11.40;99.90
20750;DHT22;10535;50.664;4.564;2022-11-25T11:56:08;11.30;99.90
20750;DHT22;10535;50.664;4.564;2022-11-25T12:02:11;11.40;99.90
20750;DHT22;10535;50.664;4.564;2022-11-25T12:04:45;11.60;99.90
20750;DHT22;10535;50.664;4.564;2022-11-25T12:07:26;11.70;99.90
20750;DHT22;10535;50.664;4.564;2022-11-25T12:12:49;11.80;99.90
20750;DHT22;10535;50.664;4.564;2022-11-25T12:18:09;11.80;99.90
20750;DHT22;10535;50.664;4.564;2022-11-25T12:20:46;11.70;99.90
20750;DHT22;10535;50.664;4.564;2022-11-25T12:23:26;11.70;99.90
20750;DHT22;10535;50.664;4.564;2022-11-25T12:25:57;11.80;99.90
20750;DHT22;10535;50.664;4.564;2022-11-25T12:28:34;11.70;99.90
20750;DHT22;10535;50.664;4.564;2022-11-25T12:33:51;11.80;99.90
20750;DHT22;10535;50.664;4.564;2022-11-25T12:36:43;11.90;99.90
20750;DHT22;10535;50.664;4.564;2022-11-25T12:42:15;12.00;99.90
20750;DHT22;10535;50.664;4.564;2022-11-25T12:47:31;12.10;99.90
20750;DHT22;10535;50.664;4.564;2022-11-25T12:49:58;12.00;99.90
20750;DHT22;10535;50.664;4.564;2022-11-25T12:55:29;12.00;99.90
20750;DHT22;10535;50.664;4.564;2022-11-25T13:03:28;12.10;99.90
20750;DHT22;10535;50.664;4.564;2022-11-25T13:17:12;11.90;99.90
20750;DHT22;10535;50.664;4.564;2022-11-25T13:19:39;12.00;99.90
20750;DHT22;10535;50.664;4.564;2022-11-25T13:24:48;12.10;99.90
20750;DHT22;10535;50.664;4.564;2022-11-25T13:35:47;12.80;99.90
20750;DHT22;10535;50.664;4.564;2022-11-25T13:41:00;12.50;99.90
20750;DHT22;10535;50.664;4.564;2022-11-25T13:43:26;12.70;99.90
20750;DHT22;10535;50.664;4.564;2022-11-25T13:45:52;12.60;99.90
20750;DHT22;10535;50.664;4.564;2022-11-25T13:48:29;12.80;99.90
20750;DHT22;10535;50.664;4.564;2022-11-25T13:51:28;12.80;99.90
20750;DHT22;10535;50.664;4.564;2022-11-25T13:54:04;12.90;99.90
20750;DHT22;10535;50.664;4.564;2022-11-25T13:56:35;13.00;99.90
20750;DHT22;10535;50.664;4.564;2022-11-25T14:01:39;12.90;99.90
20750;DHT22;10535;50.664;4.564;2022-11-25T14:04:11;12.90;99.90
20750;DHT22;10535;50.664;4.564;2022-11-25T14:21:15;12.70;99.90
20750;DHT22;10535;50.664;4.564;2022-11-25T14:26:36;12.70;99.90
20750;DHT22;10535;50.664;4.564;2022-11-25T14:35:08;12.50;99.90
20750;DHT22;10535;50.664;4.564;2022-11-25T14:37:58;12.50;99.90
20750;DHT22;10535;50.664;4.564;2022-11-25T14:41:06;12.40;99.90
20750;DHT22;10535;50.664;4.564;2022-11-25T15:01:50;11.30;99.90
20750;DHT22;10535;50.664;4.564;2022-11-25T15:14:54;11.10;99.90
20750;DHT22;10535;50.664;4.564;2022-11-25T15:20:49;10.90;99.90
20750;DHT22;10535;50.664;4.564;2022-11-25T15:23:38;11.00;99.90
20750;DHT22;10535;50.664;4.564;2022-11-25T15:26:29;11.00;99.90
20750;DHT22;10535;50.664;4.564;2022-11-25T15:29:12;11.10;99.90
20750;DHT22;10535;50.664;4.564;2022-11-25T15:31:47;11.10;99.90
20750;DHT22;10535;50.664;4.564;2022-11-25T15:34:15;11.10;99.90
20750;DHT22;10535;50.664;4.564;2022-11-25T15:37:08;11.00;99.90
20750;DHT22;10535;50.664;4.564;2022-11-25T15:39:40;11.00;99.90
20750;DHT22;10535;50.664;4.564;2022-11-25T15:42:18;11.00;99.90
20750;DHT22;10535;50.664;4.564;2022-11-25T15:44:53;11.10;99.90
20750;DHT22;10535;50.664;4.564;2022-11-25T15:47:30;11.00;99.90
20750;DHT22;10535;50.664;4.564;2022-11-25T15:50:05;11.30;99.90
20750;DHT22;10535;50.664;4.564;2022-11-25T15:53:24;11.00;99.90
20750;DHT22;10535;50.664;4.564;2022-11-25T16:10:30;10.40;99.90
20750;DHT22;10535;50.664;4.564;2022-11-25T16:13:48;10.30;99.90
20750;DHT22;10535;50.664;4.564;2022-11-25T16:22:03;10.00;99.90
20750;DHT22;10535;50.664;4.564;2022-11-25T16:24:38;10.00;99.90
20750;DHT22;10535;50.664;4.564;2022-11-25T16:27:25;10.10;99.90
20750;DHT22;10535;50.664;4.564;2022-11-25T16:30:23;9.90;99.90
20750;DHT22;10535;50.664;4.564;2022-11-25T16:32:52;9.80;99.90
20750;DHT22;10535;50.664;4.564;2022-11-25T16:35:53;9.70;99.90
20750;DHT22;10535;50.664;4.564;2022-11-25T16:41:08;9.60;99.90
20750;DHT22;10535;50.664;4.564;2022-11-25T16:43:36;9.70;99.90
20750;DHT22;10535;50.664;4.564;2022-11-25T16:59:39;9.30;99.90
20750;DHT22;10535;50.664;4.564;2022-11-25T17:07:18;9.40;99.90
20750;DHT22;10535;50.664;4.564;2022-11-25T17:09:50;9.50;99.90
20750;DHT22;10535;50.664;4.564;2022-11-25T17:12:39;9.50;99.90
20750;DHT22;10535;50.664;4.564;2022-11-25T17:15:18;9.40;99.90
20750;DHT22;10535;50.664;4.564;2022-11-25T17:17:52;9.30;99.90
20750;DHT22;10535;50.664;4.564;2022-11-25T17:20:22;9.30;99.90
20750;DHT22;10535;50.664;4.564;2022-11-25T17:22:51;9.30;99.90
20750;DHT22;10535;50.664;4.564;2022-11-25T17:25:17;9.10;99.90
20750;DHT22;10535;50.664;4.564;2022-11-25T17:27:46;9.20;99.90
20750;DHT22;10535;50.664;4.564;2022-11-25T17:30:24;9.10;99.90
20750;DHT22;10535;50.664;4.564;2022-11-25T17:56:32;8.50;99.90
20750;DHT22;10535;50.664;4.564;2022-11-25T18:01:42;8.40;99.90
20750;DHT22;10535;50.664;4.564;2022-11-25T18:04:22;8.40;99.90
20750;DHT22;10535;50.664;4.564;2022-11-25T18:06:49;8.50;99.90
20750;DHT22;10535;50.664;4.564;2022-11-25T18:09:18;8.50;99.90
20750;DHT22;10535;50.664;4.564;2022-11-25T18:22:32;8.30;99.90
20750;DHT22;10535;50.664;4.564;2022-11-25T18:30:27;8.40;99.90
20750;DHT22;10535;50.664;4.564;2022-11-25T18:32:55;8.40;99.90
20750;DHT22;10535;50.664;4.564;2022-11-25T18:35:25;8.50;99.90
20750;DHT22;10535;50.664;4.564;2022-11-25T18:37:51;8.40;99.90
20750;DHT22;10535;50.664;4.564;2022-11-25T18:40:19;8.30;99.90
20750;DHT22;10535;50.664;4.564;2022-11-25T18:42:51;8.40;99.90
20750;DHT22;10535;50.664;4.564;2022-11-25T18:45:21;8.30;99.90
20750;DHT22;10535;50.664;4.564;2022-11-25T18:47:47;8.40;99.90
20750;DHT22;10535;50.664;4.564;2022-11-25T18:50:22;8.30;99.90
20750;DHT22;10535;50.664;4.564;2022-11-25T18:52:48;8.30;99.90
20750;DHT22;10535;50.664;4.564;2022-11-25T18:55:17;8.30;99.90
20750;DHT22;10535;50.664;4.564;2022-11-25T19:00:48;8.10;99.90
20750;DHT22;10535;50.664;4.564;2022-11-25T19:22:11;7.80;99.90
20750;DHT22;10535;50.664;4.564;2022-11-25T19:27:21;7.70;99.90
20750;DHT22;10535;50.664;4.564;2022-11-25T19:35:02;7.60;99.90
20750;DHT22;10535;50.664;4.564;2022-11-25T19:40:19;7.40;99.90
20750;DHT22;10535;50.664;4.564;2022-11-25T19:42:55;7.40;99.90
20750;DHT22;10535;50.664;4.564;2022-11-25T19:45:21;7.30;99.90
20750;DHT22;10535;50.664;4.564;2022-11-25T19:47:51;7.30;99.90
20750;DHT22;10535;50.664;4.564;2022-11-25T19:50:23;7.20;99.90
20750;DHT22;10535;50.664;4.564;2022-11-25T19:53:16;7.30;99.90
20750;DHT22;10535;50.664;4.564;2022-11-25T19:55:44;7.20;99.90
20750;DHT22;10535;50.664;4.564;2022-11-25T20:01:43;7.00;99.90
20750;DHT22;10535;50.664;4.564;2022-11-25T20:04:28;6.90;99.90
20750;DHT22;10535;50.664;4.564;2022-11-25T20:27:39;6.50;99.90
20750;DHT22;10535;50.664;4.564;2022-11-25T20:32:54;6.40;99.90
20750;DHT22;10535;50.664;4.564;2022-11-25T20:52:49;6.40;99.90
20750;DHT22;10535;50.664;4.564;2022-11-25T20:55:21;6.30;99.90
20750;DHT22;10535;50.664;4.564;2022-11-25T20:58:52;6.20;99.90
20750;DHT22;10535;50.664;4.564;2022-11-25T21:02:13;6.20;99.90
20750;DHT22;10535;50.664;4.564;2022-11-25T21:04:56;6.10;99.90
20750;DHT22;10535;50.664;4.564;2022-11-25T21:23:47;6.00;99.90
20750;DHT22;10535;50.664;4.564;2022-11-25T21:27:09;5.90;99.90
20750;DHT22;10535;50.664;4.564;2022-11-25T21:32:36;5.70;99.90
20750;DHT22;10535;50.664;4.564;2022-11-25T21:35:09;5.70;99.90
20750;DHT22;10535;50.664;4.564;2022-11-25T21:42:57;5.60;99.90
20750;DHT22;10535;50.664;4.564;2022-11-25T21:46:19;5.80;99.90
20750;DHT22;10535;50.664;4.564;2022-11-25T21:48:55;5.80;99.90
20750;DHT22;10535;50.664;4.564;2022-11-25T21:52:15;5.80;99.90
20750;DHT22;10535;50.664;4.564;2022-11-25T21:54:55;5.70;99.90
20750;DHT22;10535;50.664;4.564;2022-11-25T21:57:48;5.70;99.90
20750;DHT22;10535;50.664;4.564;2022-11-25T22:00:37;5.80;99.90
20750;DHT22;10535;50.664;4.564;2022-11-25T22:03:26;5.50;99.90
20750;DHT22;10535;50.664;4.564;2022-11-25T22:05:59;5.40;99.90
20750;DHT22;10535;50.664;4.564;2022-11-25T22:39:47;5.10;99.90
